Time;durP1;ratioP1;P1;durP2;ratioP2;P2;SDS_P1;SDS_P2;PMS_P1;PMS_P2;Temp;Humidity;BMP_temperature;BMP_pressure;BME280_temperature;BME280_humidity;BME280_pressure;Samples;Min_cycle;Max_cycle;Signal;HPM_P1;HPM_P2
2021/12/10 00:00:57;;;;;;;6.00;1.90;;;;;;;2.17;88.20;96809.44;5076349;28;20201;-72
2021/12/10 00:03:26;;;;;;;5.77;1.83;;;;;;;2.19;88.42;96806.63;5075943;28;20193;-72
2021/12/10 00:05:57;;;;;;;4.97;1.70;;;;;;;2.10;89.75;96794.69;5076319;28;20200;-73
2021/12/10 00:08:26;;;;;;;5.53;1.70;;;;;;;1.96;90.52;96788.63;5076189;28;20213;-73
2021/12/10 00:10:56;;;;;;;4.03;1.80;;;;;;;1.89;90.85;96781.72;5075944;28;20208;-73
2021/12/10 00:13:23;;;;;;;5.53;2.03;;;;;;;1.88;89.87;96785.34;5076151;28;20303;-73
2021/12/10 00:15:54;;;;;;;5.63;1.80;;;;;;;1.71;91.47;96777.00;5076184;28;20280;-73
2021/12/10 00:18:20;;;;;;;7.17;1.93;;;;;;;1.68;91.45;96766.13;5076038;28;20185;-73
2021/12/10 00:20:49;;;;;;;5.73;1.90;;;;;;;1.63;91.34;96764.06;5076125;28;20310;-73
2021/12/10 00:23:20;;;;;;;5.03;1.70;;;;;;;1.67;91.06;96765.28;5078102;28;20342;-72
2021/12/10 00:25:50;;;;;;;5.63;1.70;;;;;;;1.61;91.44;96755.59;5079809;28;20188;-72
2021/12/10 00:28:29;;;;;;;4.07;1.77;;;;;;;1.66;90.82;96753.22;5079775;28;20221;-72
2021/12/10 00:31:17;;;;;;;5.00;1.90;;;;;;;1.74;90.13;96742.56;5079488;28;20624;-72
2021/12/10 00:34:04;;;;;;;3.80;1.70;;;;;;;1.72;89.71;96736.69;5079330;28;20231;-72
2021/12/10 00:36:33;;;;;;;6.37;1.90;;;;;;;1.70;89.55;96741.34;5079230;28;20232;-72
2021/12/10 00:39:01;;;;;;;3.07;2.00;;;;;;;1.65;90.21;96737.69;5079679;28;20185;-72
2021/12/10 00:41:28;;;;;;;5.90;1.80;;;;;;;1.68;89.62;96740.75;5080147;28;20280;-72
2021/12/10 00:43:55;;;;;;;8.43;2.47;;;;;;;1.63;89.84;96732.63;5079175;28;20227;-72
2021/12/10 00:46:21;;;;;;;4.50;1.60;;;;;;;1.58;90.08;96726.38;5079566;28;20501;-72
2021/12/10 00:48:48;;;;;;;7.73;1.80;;;;;;;1.60;89.88;96725.19;5079123;28;20642;-72
2021/12/10 00:51:15;;;;;;;3.77;1.80;;;;;;;1.51;90.32;96705.41;5079458;28;20503;-72
2021/12/10 00:53:43;;;;;;;6.23;1.80;;;;;;;1.44;90.57;96703.78;5079351;28;20216;-72
2021/12/10 00:56:10;;;;;;;3.90;1.80;;;;;;;1.50;90.41;96702.97;5079040;28;20584;-72
2021/12/10 00:58:40;;;;;;;3.43;1.73;;;;;;;1.48;90.71;96697.16;5079331;28;20200;-72
2021/12/10 01:01:10;;;;;;;3.67;1.57;;;;;;;1.31;91.80;96691.41;5079236;28;20477;-72
2021/12/10 01:03:41;;;;;;;5.37;1.93;;;;;;;1.29;91.72;96687.38;5078763;28;20227;-72
2021/12/10 01:06:12;;;;;;;6.97;1.83;;;;;;;1.25;91.48;96689.56;5079161;28;20203;-72
2021/12/10 01:08:42;;;;;;;5.07;2.10;;;;;;;1.19;91.04;96685.13;5079028;28;20250;-72
2021/12/10 01:11:34;;;;;;;6.83;2.30;;;;;;;1.20;91.50;96680.69;5079141;28;20205;-72
2021/12/10 01:14:13;;;;;;;6.13;1.90;;;;;;;1.26;91.38;96677.31;5075894;28;20224;-72
2021/12/10 01:25:07;;;;;;;6.17;1.60;;;;;;;1.07;91.55;96663.09;5078570;28;20207;-72
2021/12/10 01:27:38;;;;;;;5.17;1.77;;;;;;;1.06;91.51;96664.13;5079419;28;20236;-72
2021/12/10 01:30:23;;;;;;;4.53;1.80;;;;;;;1.06;91.42;96652.81;5078625;28;20232;-72
2021/12/10 01:32:56;;;;;;;3.60;1.50;;;;;;;1.06;91.64;96650.22;5078375;28;20607;-72
2021/12/10 01:35:28;;;;;;;6.60;1.80;;;;;;;1.00;92.38;96646.59;5077485;28;20221;-72
2021/12/10 01:37:56;;;;;;;3.50;2.00;;;;;;;0.99;92.05;96641.53;5078216;28;20606;-68
2021/12/10 01:40:26;;;;;;;6.20;2.00;;;;;;;0.97;91.84;96639.09;5078457;28;20192;-69
2021/12/10 01:43:00;;;;;;;6.43;1.87;;;;;;;0.91;91.49;96626.00;5078380;28;20292;-68
2021/12/10 01:45:31;;;;;;;3.70;1.53;;;;;;;0.90;91.53;96624.38;5078804;28;20310;-69
2021/12/10 01:48:11;;;;;;;7.03;1.83;;;;;;;0.96;91.25;96616.56;5078325;28;20189;-69
2021/12/10 01:50:38;;;;;;;5.03;1.40;;;;;;;0.90;91.91;96606.06;5078220;28;20213;-68
2021/12/10 01:53:11;;;;;;;6.77;1.60;;;;;;;0.93;91.50;96597.81;5078278;28;20698;-69
2021/12/10 01:55:41;;;;;;;3.30;1.87;;;;;;;0.91;91.33;96595.41;5078198;28;20523;-68
2021/12/10 01:58:10;;;;;;;2.77;1.43;;;;;;;0.92;90.76;96586.56;5078997;28;20189;-68
2021/12/10 02:00:40;;;;;;;6.83;1.83;;;;;;;1.01;89.85;96584.56;5078120;28;20193;-68
2021/12/10 02:03:07;;;;;;;5.40;1.77;;;;;;;1.07;89.06;96587.22;5077682;28;20437;-68
2021/12/10 02:05:34;;;;;;;4.33;1.87;;;;;;;1.03;88.80;96579.97;5078074;28;20189;-68
2021/12/10 02:08:02;;;;;;;3.33;1.50;;;;;;;1.01;89.04;96574.13;5077999;28;20192;-68
2021/12/10 02:10:29;;;;;;;4.40;1.83;;;;;;;0.97;89.28;96573.69;5077687;28;20472;-68
2021/12/10 02:12:58;;;;;;;5.40;1.67;;;;;;;0.97;89.34;96567.66;5076556;28;20637;-69
2021/12/10 02:15:27;;;;;;;5.30;1.70;;;;;;;1.02;88.22;96565.25;5077732;28;20453;-68
2021/12/10 02:17:56;;;;;;;5.27;1.57;;;;;;;0.87;89.32;96554.13;5077751;28;20461;-68
2021/12/10 02:20:25;;;;;;;4.80;1.83;;;;;;;0.87;88.91;96547.09;5077762;28;20203;-68
2021/12/10 02:22:52;;;;;;;5.43;1.27;;;;;;;0.85;88.63;96545.69;5077398;28;20553;-68
2021/12/10 02:25:23;;;;;;;4.63;1.60;;;;;;;0.93;87.70;96545.50;5077431;28;20225;-69
2021/12/10 02:27:50;;;;;;;7.67;1.63;;;;;;;0.92;88.20;96536.03;5077089;28;20603;-68
2021/12/10 02:30:18;;;;;;;2.60;1.30;;;;;;;0.94;88.16;96534.06;5077330;28;20215;-68
2021/12/10 02:32:45;;;;;;;6.93;1.50;;;;;;;0.89;87.58;96518.94;5077335;28;20189;-68
2021/12/10 02:35:14;;;;;;;4.10;1.33;;;;;;;0.86;87.86;96531.59;5076896;28;20456;-68
2021/12/10 02:37:43;;;;;;;6.27;1.43;;;;;;;0.88;87.53;96521.75;5077279;28;20204;-68
2021/12/10 02:40:11;;;;;;;3.67;1.20;;;;;;;0.80;88.60;96514.09;5077203;28;20192;-68
2021/12/10 02:42:38;;;;;;;2.43;1.20;;;;;;;0.70;89.85;96506.59;5077287;28;20437;-68
2021/12/10 02:45:07;;;;;;;3.80;1.40;;;;;;;0.69;88.66;96493.72;5076752;28;20737;-69
2021/12/10 02:47:35;;;;;;;3.30;1.20;;;;;;;0.64;89.77;96488.25;5076871;28;20196;-68
2021/12/10 02:50:01;;;;;;;3.47;1.60;;;;;;;0.61;90.97;96470.34;5077119;28;20208;-68
2021/12/10 02:52:28;;;;;;;5.00;1.20;;;;;;;0.53;91.79;96473.16;5077149;28;20497;-68
2021/12/10 02:54:57;;;;;;;4.87;1.20;;;;;;;0.47;92.47;96484.34;5076683;28;20730;-68
2021/12/10 02:57:25;;;;;;;5.73;1.77;;;;;;;0.40;91.81;96480.94;5077048;28;20220;-68
2021/12/10 02:59:52;;;;;;;2.17;1.20;;;;;;;0.44;90.20;96472.50;5077055;28;20185;-68
2021/12/10 03:02:22;;;;;;;2.43;1.13;;;;;;;0.50;89.89;96465.69;5076686;28;20193;-68
2021/12/10 03:04:49;;;;;;;2.50;1.27;;;;;;;0.49;89.58;96458.84;5076584;28;20227;-68
2021/12/10 03:07:19;;;;;;;2.90;1.20;;;;;;;0.55;90.48;96456.25;5076624;28;20230;-68
2021/12/10 03:09:50;;;;;;;1.73;1.00;;;;;;;0.62;89.03;96453.66;5076846;28;20272;-71
2021/12/10 03:12:19;;;;;;;5.20;1.20;;;;;;;0.57;88.55;96450.81;5076412;28;20216;-72
2021/12/10 03:14:48;;;;;;;5.27;1.40;;;;;;;0.64;88.59;96449.03;5076755;28;20224;-72
2021/12/10 03:17:21;;;;;;;1.90;1.20;;;;;;;0.70;87.27;96448.25;5076761;28;20209;-72
2021/12/10 03:19:49;;;;;;;4.33;1.23;;;;;;;0.56;88.45;96443.97;5076739;28;20207;-72
2021/12/10 03:22:15;;;;;;;4.27;1.20;;;;;;;0.49;88.36;96441.34;5076405;28;20429;-72
2021/12/10 03:24:42;;;;;;;4.87;1.17;;;;;;;0.49;87.66;96437.94;5076538;28;20228;-72
2021/12/10 03:27:10;;;;;;;4.77;1.50;;;;;;;0.47;87.96;96438.91;5076357;28;20196;-72
2021/12/10 03:29:41;;;;;;;3.60;1.27;;;;;;;0.52;87.81;96427.88;5076558;28;20299;-72
2021/12/10 03:32:12;;;;;;;2.90;1.30;;;;;;;0.55;87.16;96427.50;5076625;28;20196;-72
2021/12/10 03:34:39;;;;;;;3.87;1.00;;;;;;;0.46;89.26;96426.06;5076435;28;20457;-72
2021/12/10 03:37:06;;;;;;;3.23;1.40;;;;;;;0.40;90.42;96418.19;5076588;28;20189;-72
2021/12/10 03:39:34;;;;;;;6.60;1.47;;;;;;;0.39;90.88;96414.75;5076569;28;20195;-72
2021/12/10 03:42:01;;;;;;;4.53;1.57;;;;;;;0.39;90.47;96412.16;5076517;28;20193;-72
2021/12/10 03:44:28;;;;;;;4.50;1.40;;;;;;;0.46;88.40;96409.56;5076375;28;20229;-72
2021/12/10 03:46:55;;;;;;;3.83;1.53;;;;;;;0.40;89.83;96397.28;5076474;28;20421;-72
2021/12/10 03:49:22;;;;;;;4.40;1.43;;;;;;;0.35;90.39;96400.47;5075969;28;20906;-72
2021/12/10 03:51:48;;;;;;;3.07;1.30;;;;;;;0.46;89.82;96386.03;5076380;28;20208;-72
2021/12/10 03:54:17;;;;;;;4.87;1.10;;;;;;;0.49;88.45;96385.66;5076027;28;20928;-72
2021/12/10 03:56:45;;;;;;;4.43;2.00;;;;;;;0.54;88.42;96385.88;5076341;28;20426;-72
2021/12/10 03:59:15;;;;;;;6.53;1.60;;;;;;;0.49;89.00;96372.59;5079701;28;20595;-72
2021/12/10 04:01:45;;;;;;;4.60;1.50;;;;;;;0.53;89.48;96368.56;5080369;28;20425;-72
2021/12/10 04:04:19;;;;;;;6.13;1.70;;;;;;;0.49;89.90;96355.06;5080202;28;20247;-72
2021/12/10 04:06:46;;;;;;;4.87;1.60;;;;;;;0.45;88.43;96342.63;5080211;28;20422;-72
2021/12/10 04:09:12;;;;;;;3.43;1.50;;;;;;;0.37;88.48;96345.41;5080015;28;20734;-72
2021/12/10 04:11:39;;;;;;;4.60;2.00;;;;;;;0.31;89.18;96338.34;5079759;28;20449;-72
2021/12/10 04:14:06;;;;;;;3.50;1.60;;;;;;;0.28;89.46;96336.13;5080118;28;20483;-72
2021/12/10 04:16:34;;;;;;;3.53;1.80;;;;;;;0.25;89.41;96329.50;5079665;28;20437;-72
2021/12/10 04:19:04;;;;;;;5.43;2.00;;;;;;;0.22;89.66;96330.69;5079881;28;20429;-72
2021/12/10 04:21:31;;;;;;;5.37;2.30;;;;;;;0.22;90.70;96334.31;5079808;28;20196;-72
2021/12/10 04:23:58;;;;;;;6.03;2.20;;;;;;;0.24;90.25;96330.50;5079596;28;20760;-72
2021/12/10 04:26:27;;;;;;;7.50;2.77;;;;;;;0.18;90.07;96324.25;5079385;28;20439;-72
2021/12/10 04:28:54;;;;;;;5.47;2.53;;;;;;;0.09;90.46;96328.03;5079732;28;20433;-72
2021/12/10 04:31:21;;;;;;;4.77;2.27;;;;;;;-0.04;90.79;96333.19;5079594;28;20496;-72
2021/12/10 04:33:47;;;;;;;6.00;2.57;;;;;;;0.01;90.17;96328.19;5079503;28;20449;-69
2021/12/10 04:36:13;;;;;;;3.37;2.30;;;;;;;0.11;91.20;96325.22;5079308;28;20441;-68
2021/12/10 04:38:40;;;;;;;5.60;2.50;;;;;;;0.09;91.01;96328.03;5079493;28;20433;-68
2021/12/10 04:41:10;;;;;;;7.30;2.60;;;;;;;0.08;90.59;96312.53;5079178;28;20419;-68
2021/12/10 04:43:39;;;;;;;5.10;2.70;;;;;;;0.19;89.02;96309.38;5079445;28;20460;-68
2021/12/10 04:46:06;;;;;;;4.53;3.20;;;;;;;0.17;89.88;96306.97;5079024;28;20887;-68
2021/12/10 04:48:46;;;;;;;8.73;3.17;;;;;;;0.22;89.40;96301.13;5079075;28;20721;-68
2021/12/10 04:51:12;;;;;;;6.43;2.70;;;;;;;0.17;90.49;96302.75;5079255;28;20468;-68
2021/12/10 04:53:39;;;;;;;6.73;3.20;;;;;;;0.19;90.05;96291.09;5079147;28;20460;-68
2021/12/10 04:56:05;;;;;;;5.77;2.67;;;;;;;0.17;89.51;96289.69;5079229;28;20429;-68
2021/12/10 04:58:32;;;;;;;7.67;2.80;;;;;;;0.19;89.46;96285.88;5078992;28;20421;-68
2021/12/10 05:01:00;;;;;;;7.03;3.50;;;;;;;0.16;90.23;96281.03;5078919;28;20417;-68
2021/12/10 05:03:26;;;;;;;6.23;3.13;;;;;;;0.16;89.82;96278.41;5079070;28;20437;-68
2021/12/10 05:05:59;;;;;;;6.77;3.90;;;;;;;0.17;89.47;96270.38;5078962;28;20201;-68
2021/12/10 05:08:26;;;;;;;6.10;3.57;;;;;;;0.12;89.91;96266.75;5078206;28;20262;-69
2021/12/10 05:10:52;;;;;;;7.73;4.00;;;;;;;0.15;90.31;96268.97;5077884;28;20480;-68
2021/12/10 05:13:18;;;;;;;6.43;3.90;;;;;;;0.14;89.01;96262.16;5078841;28;20453;-68
2021/12/10 05:15:45;;;;;;;10.07;4.30;;;;;;;0.15;90.27;96256.69;5078850;28;20468;-68
2021/12/10 05:18:13;;;;;;;7.80;3.70;;;;;;;0.10;90.12;96250.47;5078430;28;20449;-68
2021/12/10 05:20:44;;;;;;;7.53;4.33;;;;;;;0.07;90.20;96250.88;5078429;28;20426;-68
2021/12/10 05:23:10;;;;;;;8.43;4.40;;;;;;;0.12;89.64;96237.22;5078812;28;20476;-68
2021/12/10 05:25:37;;;;;;;6.70;3.70;;;;;;;0.10;89.92;96224.34;5078526;28;20440;-68
2021/12/10 05:28:04;;;;;;;8.73;4.07;;;;;;;0.05;89.26;96219.72;5078594;28;20424;-68
2021/12/10 05:30:31;;;;;;;9.43;4.50;;;;;;;0.08;89.79;96225.56;5078390;28;20469;-68
2021/12/10 05:33:00;;;;;;;11.30;4.67;;;;;;;0.06;89.76;96229.16;5078173;28;20442;-68
2021/12/10 05:35:27;;;;;;;6.53;4.80;;;;;;;0.08;89.54;96217.72;5077922;28;20896;-68
2021/12/10 05:37:53;;;;;;;5.27;4.20;;;;;;;0.03;89.64;96219.13;5078030;28;20729;-69
2021/12/10 05:40:20;;;;;;;10.63;4.57;;;;;;;0.01;89.57;96225.53;5078238;28;20429;-72
2021/12/10 05:42:46;;;;;;;9.60;4.67;;;;;;;0.01;89.54;96222.94;5077885;28;20535;-72
2021/12/10 05:45:15;;;;;;;6.00;4.57;;;;;;;0.05;89.13;96227.53;5077873;28;20453;-73
2021/12/10 05:47:41;;;;;;;7.77;4.27;;;;;;;-0.01;89.60;96223.13;5077769;28;20428;-73
2021/12/10 05:50:10;;;;;;;9.57;4.57;;;;;;;-0.01;90.67;96217.91;5077891;28;20469;-72
2021/12/10 05:52:36;;;;;;;9.03;5.20;;;;;;;0.00;89.54;96223.94;5077968;28;20429;-72
2021/12/10 05:55:04;;;;;;;10.07;4.67;;;;;;;-0.02;89.20;96236.38;5077930;28;20527;-72
2021/12/10 05:57:31;;;;;;;6.20;4.57;;;;;;;0.00;89.54;96232.56;5078014;28;20460;-72
2021/12/10 05:59:57;;;;;;;7.27;4.73;;;;;;;0.00;89.95;96229.16;5077594;28;20836;-72
2021/12/10 06:02:24;;;;;;;8.93;4.67;;;;;;;-0.04;90.21;96226.13;5077404;28;20701;-72
2021/12/10 06:04:50;;;;;;;8.00;4.70;;;;;;;-0.01;91.13;96217.09;5077205;28;20464;-72
2021/12/10 06:07:18;;;;;;;8.27;4.73;;;;;;;-0.04;91.16;96215.66;5077883;28;20422;-73
2021/12/10 06:09:44;;;;;;;10.27;4.13;;;;;;;-0.10;90.75;96205.22;5077381;28;20433;-72
2021/12/10 06:12:11;;;;;;;7.13;4.20;;;;;;;-0.09;91.17;96199.78;5076982;28;20721;-72
2021/12/10 06:14:37;;;;;;;7.43;4.47;;;;;;;-0.12;90.76;96187.13;5076552;28;20912;-72
2021/12/10 06:17:04;;;;;;;12.17;5.10;;;;;;;-0.06;91.02;96181.13;5077037;28;20532;-72
2021/12/10 06:19:30;;;;;;;7.53;4.80;;;;;;;-0.07;90.34;96163.03;5077090;28;20421;-72
2021/12/10 06:21:56;;;;;;;8.33;4.37;;;;;;;-0.03;89.66;96162.44;5076424;28;20424;-73
2021/12/10 06:24:25;;;;;;;7.70;4.90;;;;;;;-0.01;89.98;96157.84;5076428;28;20950;-72
2021/12/10 06:26:52;;;;;;;10.73;5.10;;;;;;;-0.04;89.48;96154.81;5077346;28;20418;-73
2021/12/10 06:29:22;;;;;;;11.57;5.40;;;;;;;-0.01;90.18;96150.00;5076774;28;20448;-73
2021/12/10 06:31:48;;;;;;;7.80;5.00;;;;;;;-0.03;89.65;96151.19;5076930;28;20461;-73
2021/12/10 06:34:15;;;;;;;12.87;5.70;;;;;;;-0.10;90.74;96138.13;5076036;28;20750;-72
2021/12/10 06:36:41;;;;;;;11.37;5.43;;;;;;;-0.10;91.11;96145.97;5076901;28;20426;-73
2021/12/10 06:39:09;;;;;;;9.27;5.47;;;;;;;-0.09;91.06;96141.56;5076701;28;20435;-72
2021/12/10 06:41:36;;;;;;;7.07;4.97;;;;;;;-0.13;91.10;96135.13;5076596;28;20426;-73
2021/12/10 06:44:06;;;;;;;7.67;5.47;;;;;;;-0.11;90.92;96131.31;5076138;28;20453;-72
2021/12/10 06:46:35;;;;;;;11.00;5.80;;;;;;;-0.17;91.45;96116.41;5076696;28;20445;-72
2021/12/10 06:49:02;;;;;;;11.37;6.10;;;;;;;-0.11;91.53;96110.41;5076592;28;20433;-72
2021/12/10 06:51:28;;;;;;;10.13;6.70;;;;;;;-0.06;91.50;96109.81;5076614;28;20480;-73
2021/12/10 06:53:54;;;;;;;13.07;7.37;;;;;;;-0.06;91.64;96099.34;5076409;28;20460;-73
2021/12/10 06:56:23;;;;;;;11.70;7.00;;;;;;;-0.03;91.60;96099.75;5076181;28;20421;-71
2021/12/10 06:58:50;;;;;;;11.37;6.77;;;;;;;0.02;91.04;96093.94;5075944;28;20533;-72
2021/12/10 07:01:23;;;;;;;10.20;6.67;;;;;;;0.01;90.78;96095.72;5076251;28;20426;-71
2021/12/10 07:03:52;;;;;;;10.57;6.50;;;;;;;-0.04;90.92;96087.69;5075978;28;20488;-72
2021/12/10 07:06:19;;;;;;;7.77;5.77;;;;;;;0.02;90.55;96086.09;5076051;28;20717;-72
2021/12/10 07:08:47;;;;;;;9.53;6.27;;;;;;;-0.02;90.05;96080.50;5076004;28;20833;-72
2021/12/10 07:11:16;;;;;;;9.60;5.93;;;;;;;0.05;89.95;96064.81;5076091;28;20765;-72
2021/12/10 07:13:46;;;;;;;8.60;6.30;;;;;;;0.05;89.98;96055.16;5076729;28;20453;-71
2021/12/10 07:16:14;;;;;;;9.07;6.57;;;;;;;-0.01;90.86;96049.94;5076490;28;20429;-72
2021/12/10 07:18:41;;;;;;;10.10;6.13;;;;;;;-0.02;90.73;96053.56;5076641;28;20433;-72
2021/12/10 07:21:08;;;;;;;11.33;6.10;;;;;;;0.01;90.39;96048.72;5062343;28;20729;-72
2021/12/10 07:23:37;;;;;;;8.73;6.80;;;;;;;0.02;90.20;96039.09;5056228;28;20458;-72
2021/12/10 07:26:05;;;;;;;12.20;6.93;;;;;;;0.01;89.86;96033.06;5055952;28;20440;-72
2021/12/10 07:28:32;;;;;;;8.83;6.40;;;;;;;0.00;90.08;96026.22;5055913;28;20436;-72
2021/12/10 07:30:59;;;;;;;11.60;6.60;;;;;;;0.07;89.95;96021.00;5055681;28;20921;-72
2021/12/10 07:33:26;;;;;;;12.10;7.23;;;;;;;0.13;90.73;96019.41;5055378;28;20452;-72
2021/12/10 07:35:54;;;;;;;12.43;6.77;;;;;;;0.09;89.41;96027.63;5055882;28;20717;-72
2021/12/10 07:38:21;;;;;;;11.73;7.30;;;;;;;0.16;89.58;96030.22;5066026;28;20445;-73
2021/12/10 07:40:48;;;;;;;11.07;6.70;;;;;;;0.20;90.05;96026.22;5076424;28;20184;-72
2021/12/10 07:43:14;;;;;;;10.20;6.73;;;;;;;0.26;89.37;96029.81;5075735;28;20441;-73
2021/12/10 07:45:46;;;;;;;12.43;7.57;;;;;;;0.27;90.67;96028.81;5075883;28;20421;-73
2021/12/10 07:48:15;;;;;;;11.47;7.00;;;;;;;0.31;89.52;96030.00;5076415;28;20433;-73
2021/12/10 07:50:52;;;;;;;9.93;7.00;;;;;;;0.33;88.69;96020.97;5075876;28;20469;-73
2021/12/10 07:53:19;;;;;;;9.87;6.10;;;;;;;0.39;88.89;96017.53;5075904;28;20495;-73
2021/12/10 07:55:47;;;;;;;16.70;6.97;;;;;;;0.41;87.30;96019.94;5076765;28;20247;-73
2021/12/10 07:58:14;;;;;;;9.37;6.27;;;;;;;0.42;86.24;96004.06;5076281;28;20204;-73
2021/12/10 08:00:44;;;;;;;12.50;6.67;;;;;;;0.46;85.13;96000.03;5075860;28;20196;-73
2021/12/10 08:03:10;;;;;;;9.00;5.73;;;;;;;0.53;85.91;95995.56;5075734;28;20197;-74
2021/12/10 08:05:38;;;;;;;10.53;5.80;;;;;;;0.54;85.91;96009.44;5075546;28;20583;-72
2021/12/10 08:08:06;;;;;;;8.60;5.20;;;;;;;0.54;86.12;96007.63;5075953;28;20228;-73
2021/12/10 08:10:33;;;;;;;7.97;5.40;;;;;;;0.61;85.05;95997.94;5075676;28;20220;-72
2021/12/10 08:13:00;;;;;;;7.73;5.53;;;;;;;0.77;85.19;96004.53;5075345;28;20629;-73
2021/12/10 08:15:27;;;;;;;7.80;5.37;;;;;;;0.70;83.79;96001.13;5075754;28;20227;-73
2021/12/10 08:17:54;;;;;;;66.03;10.80;;;;;;;0.77;82.77;96000.06;5075826;28;20201;-73
2021/12/10 08:20:23;;;;;;;11.93;5.33;;;;;;;0.81;82.25;96003.88;5075721;28;20196;-73
2021/12/10 08:22:51;;;;;;;8.47;5.23;;;;;;;0.83;82.27;96001.06;5075535;28;20209;-73
2021/12/10 08:25:20;;;;;;;5.77;4.10;;;;;;;0.83;82.64;96007.13;5075542;28;20221;-73
2021/12/10 08:27:48;;;;;;;5.50;3.80;;;;;;;0.88;83.48;96009.09;5075593;28;20485;-73
2021/12/10 08:30:18;;;;;;;6.73;3.97;;;;;;;0.90;81.81;96014.94;5075673;28;20205;-73
2021/12/10 08:32:46;;;;;;;7.03;3.73;;;;;;;0.94;80.91;96013.50;5075206;28;20191;-75
2021/12/10 08:35:19;;;;;;;4.43;3.50;;;;;;;0.94;80.19;96000.44;5075687;28;20217;-75
2021/12/10 08:37:45;;;;;;;6.73;4.47;;;;;;;0.97;81.31;96003.41;5075378;28;20200;-73
2021/12/10 08:40:15;;;;;;;4.77;3.70;;;;;;;1.01;80.41;96009.03;5075269;28;20200;-73
2021/12/10 08:42:42;;;;;;;8.40;4.20;;;;;;;1.03;81.10;96009.63;5075205;28;20471;-73
2021/12/10 08:45:09;;;;;;;6.60;4.23;;;;;;;1.10;81.69;96005.16;5078610;28;20243;-73
2021/12/10 08:47:35;;;;;;;6.43;4.30;;;;;;;1.14;80.89;96003.72;5079178;28;20193;-73
2021/12/10 08:50:05;;;;;;;5.33;4.33;;;;;;;1.20;81.55;95997.66;5079146;28;20204;-73
2021/12/10 08:52:31;;;;;;;9.83;4.50;;;;;;;1.29;80.47;95999.00;5078846;28;20208;-73
2021/12/10 08:54:57;;;;;;;7.13;4.50;;;;;;;1.39;80.16;96001.97;5079072;28;20235;-73
2021/12/10 08:57:24;;;;;;;5.87;4.00;;;;;;;1.36;80.27;96005.00;5078713;28;20630;-73
2021/12/10 08:59:51;;;;;;;6.23;4.90;;;;;;;1.49;82.45;96015.41;5078896;28;20303;-73
2021/12/10 09:02:18;;;;;;;6.67;3.80;;;;;;;1.49;81.36;96007.53;5078966;28;20204;-73
2021/12/10 09:04:47;;;;;;;7.83;4.20;;;;;;;1.51;80.24;96008.13;5078872;28;20224;-73
2021/12/10 09:07:17;;;;;;;5.03;4.30;;;;;;;1.74;77.94;95998.69;5078361;28;20604;-73
2021/12/10 09:09:46;;;;;;;4.80;4.20;;;;;;;1.75;78.25;95991.63;5078895;28;20203;-73
2021/12/10 09:12:30;;;;;;;5.33;3.53;;;;;;;1.73;77.42;95984.00;5078221;28;20220;-73
2021/12/10 09:14:59;;;;;;;5.60;3.43;;;;;;;1.76;76.77;95985.38;5078347;28;20528;-73
2021/12/10 09:17:30;;;;;;;6.20;3.67;;;;;;;1.72;76.38;95982.34;5078550;28;20284;-73
2021/12/10 09:20:00;;;;;;;6.53;4.17;;;;;;;1.84;76.21;95979.84;5078744;28;20199;-75
2021/12/10 09:22:28;;;;;;;5.70;4.40;;;;;;;1.88;76.52;95973.16;5078292;28;20185;-73
2021/12/10 09:24:57;;;;;;;5.33;3.80;;;;;;;1.96;76.71;95978.94;5078461;28;20216;-72
2021/12/10 09:27:25;;;;;;;6.50;3.77;;;;;;;1.94;75.83;95970.47;5078900;28;20482;-73
2021/12/10 09:29:57;;;;;;;4.80;3.73;;;;;;;2.00;76.91;95969.66;5078326;28;20193;-73
2021/12/10 09:32:26;;;;;;;5.23;3.53;;;;;;;1.95;76.55;95971.28;5078308;28;20209;-73
2021/12/10 09:34:55;;;;;;;10.00;4.33;;;;;;;2.18;76.47;95963.59;5077904;28;20232;-73
2021/12/10 09:37:24;;;;;;;7.97;3.80;;;;;;;1.97;77.77;95969.25;5078312;28;20185;-73
2021/12/10 09:39:52;;;;;;;5.40;4.00;;;;;;;1.92;76.57;95956.00;5078140;28;20208;-73
2021/12/10 09:42:20;;;;;;;5.73;4.57;;;;;;;2.03;79.47;95952.69;5078212;28;20510;-73
2021/12/10 09:44:46;;;;;;;5.97;3.77;;;;;;;2.00;77.21;95953.09;5077725;28;20216;-72
2021/12/10 09:47:15;;;;;;;4.67;3.60;;;;;;;1.99;76.07;95939.19;5078077;28;20188;-73
2021/12/10 09:49:47;;;;;;;7.17;4.13;;;;;;;2.09;78.78;95933.47;5077851;28;20200;-73
2021/12/10 09:52:16;;;;;;;7.50;3.80;;;;;;;2.16;77.30;95926.34;5078825;28;20550;-73
2021/12/10 09:54:43;;;;;;;5.43;4.03;;;;;;;2.22;76.60;95922.84;5077714;28;20225;-73
2021/12/10 09:57:17;;;;;;;7.33;4.17;;;;;;;2.27;75.10;95915.94;5077704;28;20185;-73
2021/12/10 09:59:46;;;;;;;6.23;4.30;;;;;;;2.27;74.53;95915.94;5077532;28;20587;-73
2021/12/10 10:02:14;;;;;;;7.10;4.40;;;;;;;2.34;76.88;95919.25;5077811;28;20479;-73
2021/12/10 10:04:46;;;;;;;6.73;3.50;;;;;;;2.38;74.44;95915.19;5077675;28;20225;-73
2021/12/10 10:07:17;;;;;;;7.17;3.80;;;;;;;2.37;74.60;95918.03;5077833;28;20239;-74
2021/12/10 10:09:48;;;;;;;6.40;3.73;;;;;;;2.55;75.64;95903.09;5077502;28;20189;-73
2021/12/10 10:12:19;;;;;;;6.00;3.10;;;;;;;2.61;71.59;95891.69;5077033;28;20221;-73
2021/12/10 10:14:46;;;;;;;9.17;3.57;;;;;;;2.57;73.18;95902.88;5077501;28;20252;-73
2021/12/10 10:17:13;;;;;;;5.23;3.60;;;;;;;2.68;71.05;95889.81;5078120;28;20224;-73
2021/12/10 10:19:41;;;;;;;4.43;3.07;;;;;;;2.71;71.04;95888.56;5077335;28;20193;-69
2021/12/10 10:22:12;;;;;;;9.73;3.80;;;;;;;2.70;71.39;95882.50;5077005;28;20192;-69
2021/12/10 10:24:39;;;;;;;9.13;4.10;;;;;;;2.77;72.28;95877.16;5077165;28;20227;-69
2021/12/10 10:27:20;;;;;;;13.37;4.30;;;;;;;2.83;72.62;95868.38;5076865;28;20196;-69
2021/12/10 10:29:56;;;;;;;8.47;3.90;;;;;;;2.79;73.61;95860.19;5076997;28;20199;-69
2021/12/10 10:32:28;;;;;;;13.90;4.00;;;;;;;2.75;70.56;95864.25;5076658;28;20299;-69
2021/12/10 10:35:01;;;;;;;6.00;3.43;;;;;;;2.78;71.11;95858.59;5076733;28;20224;-70
2021/12/10 10:37:29;;;;;;;7.20;3.57;;;;;;;2.71;70.69;95852.63;5076884;28;20235;-69
2021/12/10 10:39:56;;;;;;;6.77;3.43;;;;;;;2.64;71.80;95853.72;5076842;28;20193;-69
2021/12/10 10:42:26;;;;;;;8.97;3.23;;;;;;;2.62;71.41;95846.09;5077538;28;20200;-69
2021/12/10 10:44:55;;;;;;;9.73;4.07;;;;;;;2.69;71.95;95838.13;5076648;28;20235;-69
2021/12/10 10:47:23;;;;;;;9.80;4.33;;;;;;;2.71;69.98;95842.13;5076766;28;20207;-69
2021/12/10 10:49:54;;;;;;;7.53;3.73;;;;;;;2.88;68.74;95835.22;5076601;28;20255;-69
2021/12/10 10:52:35;;;;;;;6.63;4.10;;;;;;;2.89;72.14;95825.53;5076645;28;20232;-69
2021/12/10 10:55:18;;;;;;;9.33;3.97;;;;;;;2.94;70.30;95825.66;5076648;28;20232;-69
2021/12/10 10:58:09;;;;;;;6.80;3.57;;;;;;;2.83;69.09;95829.03;5076067;28;20576;-69
2021/12/10 11:00:46;;;;;;;5.47;3.47;;;;;;;2.86;68.45;95820.72;5076185;28;20188;-70
2021/12/10 11:03:18;;;;;;;6.33;3.53;;;;;;;2.86;69.38;95810.22;5076294;28;20271;-69
2021/12/10 11:05:52;;;;;;;14.27;4.07;;;;;;;2.97;70.64;95809.44;5076048;28;20458;-69
2021/12/10 11:08:52;;;;;;;30.77;7.20;;;;;;;3.03;70.81;95808.56;5075948;28;20193;-69
2021/12/10 11:11:25;;;;;;;13.07;4.23;;;;;;;3.06;71.01;95803.66;5064792;28;20228;-69
2021/12/10 11:14:03;;;;;;;6.33;3.73;;;;;;;3.03;69.30;95801.47;5075871;28;20308;-69
2021/12/10 11:16:31;;;;;;;8.50;3.80;;;;;;;3.11;67.45;95795.13;5076091;28;20192;-69
2021/12/10 11:19:12;;;;;;;6.77;3.50;;;;;;;3.17;69.73;95800.22;5076249;28;20189;-69
2021/12/10 11:21:53;;;;;;;6.43;3.53;;;;;;;3.28;67.61;95796.81;5076206;28;20188;-69
2021/12/10 11:24:34;;;;;;;9.00;3.87;;;;;;;3.32;68.70;95805.03;5076311;28;20220;-69
2021/12/10 11:27:12;;;;;;;5.73;2.97;;;;;;;3.30;68.93;95809.72;5076439;28;20188;-69
2021/12/10 11:29:47;;;;;;;7.17;3.63;;;;;;;3.29;68.41;95818.63;5075885;28;20587;-69
2021/12/10 11:32:32;;;;;;;5.27;3.10;;;;;;;3.28;69.10;95817.00;5076362;28;20212;-69
2021/12/10 11:35:02;;;;;;;6.63;3.17;;;;;;;3.56;68.42;95817.13;5076175;28;20231;-69
2021/12/10 11:37:48;;;;;;;7.67;1.80;;;;;;;3.70;63.17;95818.50;5075960;28;20205;-69
2021/12/10 11:41:09;;;;;;;3.43;1.00;;;;;;;3.80;59.84;95813.47;5075780;28;20191;-69
2021/12/10 11:44:06;;;;;;;5.83;1.13;;;;;;;3.64;60.78;95817.59;5053737;28;20236;-69
2021/12/10 11:47:23;;;;;;;2.00;1.00;;;;;;;3.57;62.95;95822.16;5076087;28;20280;-69
2021/12/10 11:49:49;;;;;;;1.50;0.70;;;;;;;3.48;63.92;95828.00;5075963;28;20227;-69
2021/12/10 11:52:20;;;;;;;5.33;1.60;;;;;;;3.31;66.45;95827.88;5076130;28;20221;-69
2021/12/10 11:54:56;;;;;;;1.30;0.73;;;;;;;2.97;72.08;95827.81;5076007;28;20275;-69
2021/12/10 11:57:24;;;;;;;1.60;0.67;;;;;;;2.82;74.82;95830.88;5075525;28;20200;-69
2021/12/10 11:59:56;;;;;;;6.10;1.50;;;;;;;2.71;74.58;95833.47;5076135;28;20189;-69